Time;durP1;ratioP1;P1;durP2;ratioP2;P2;SDS_P1;SDS_P2;PMS_P1;PMS_P2;Temp;Humidity;BMP_temperature;BMP_pressure;BME280_temperature;BME280_humidity;BME280_pressure;Samples;Min_cycle;Max_cycle;Signal;HPM_P1;HPM_P2
2023/07/25 00:00:33;;;;;;;;;;;15.30;91.70;;;;;;5035699;28;20028;-78
2023/07/25 00:02:59;;;;;;;;;;;15.30;90.70;;;;;;5034490;28;19933;-78
2023/07/25 00:05:24;;;;;;;;;;;15.30;91.50;;;;;;5032568;28;20011;-78
2023/07/25 00:07:50;;;;;;;;;;;15.40;91.60;;;;;;5050550;28;19932;-77
2023/07/25 00:10:16;;;;;;;;;;;15.30;91.40;;;;;;5034361;28;19978;-78
2023/07/25 00:12:43;;;;;;;;;;;15.30;90.10;;;;;;5021772;28;19925;-78
2023/07/25 00:15:08;;;;;;;;;;;15.30;89.70;;;;;;5033431;28;19998;-78
2023/07/25 00:17:34;;;;;;;;;;;15.30;87.90;;;;;;5036091;28;19932;-78
2023/07/25 00:19:59;;;;;;;;;;;15.30;88.40;;;;;;5034153;28;19944;-78
2023/07/25 00:22:25;;;;;;;;;;;15.30;89.50;;;;;;5018764;28;20498;-78
2023/07/25 00:24:51;;;;;;;;;;;15.30;90.10;;;;;;5033744;28;19933;-78
2023/07/25 00:27:16;;;;;;;;;;;15.30;89.00;;;;;;5033795;28;19990;-78
2023/07/25 00:29:42;;;;;;;;;;;15.30;90.10;;;;;;5034061;28;20410;-78
2023/07/25 00:32:07;;;;;;;;;;;15.30;90.10;;;;;;5034906;28;20020;-78
2023/07/25 00:34:33;;;;;;;;;;;15.30;90.00;;;;;;5035366;28;19967;-78
2023/07/25 00:36:59;;;;;;;;;;;15.30;88.00;;;;;;5034340;28;19972;-78
2023/07/25 00:39:24;;;;;;;;;;;15.30;88.20;;;;;;5034005;28;20668;-77
2023/07/25 00:41:50;;;;;;;;;;;15.20;87.80;;;;;;5002116;28;19987;-78
2023/07/25 00:44:16;;;;;;;;;;;15.20;87.70;;;;;;5033894;28;19925;-78
2023/07/25 00:46:42;;;;;;;;;;;15.20;87.00;;;;;;5022337;28;19986;-78
2023/07/25 00:49:07;;;;;;;;;;;15.20;87.00;;;;;;5017187;28;19929;-78
2023/07/25 00:51:33;;;;;;;;;;;15.20;86.50;;;;;;5033382;28;20002;-78
2023/07/25 00:53:59;;;;;;;;;;;15.10;85.40;;;;;;5033654;28;19967;-78
2023/07/25 00:56:25;;;;;;;;;;;15.10;85.40;;;;;;5034299;28;20030;-78
2023/07/25 00:58:51;;;;;;;;;;;15.10;85.80;;;;;;5032853;28;20368;-78
2023/07/25 01:01:17;;;;;;;;;;;16.20;87.00;;;;;;5032521;28;20372;-78
2023/07/25 01:03:42;;;;;;;;;;;15.10;86.40;;;;;;5034859;28;19932;-78
2023/07/25 01:06:11;;;;;;;;;;;15.10;86.40;;;;;;5017138;28;19940;-78
2023/07/25 01:08:50;;;;;;;;;;;15.10;86.70;;;;;;5017922;28;19936;-77
2023/07/25 01:11:15;;;;;;;;;;;15.10;86.30;;;;;;5034196;28;19933;-78
2023/07/25 01:13:41;;;;;;;;;;;15.10;85.80;;;;;;5022161;28;19925;-77
2023/07/25 01:16:08;;;;;;;;;;;15.10;86.00;;;;;;5032165;28;19920;-78
2023/07/25 01:18:34;;;;;;;;;;;15.10;86.30;;;;;;5033630;28;19993;-77
2023/07/25 01:21:01;;;;;;;;;;;15.20;86.70;;;;;;5016753;28;20343;-78
2023/07/25 01:23:27;;;;;;;;;;;15.10;84.80;;;;;;5033376;28;19932;-78
2023/07/25 01:25:53;;;;;;;;;;;15.10;82.30;;;;;;5018243;28;19932;-78
2023/07/25 01:28:18;;;;;;;;;;;15.10;83.10;;;;;;5040066;28;19929;-78
2023/07/25 01:30:44;;;;;;;;;;;15.10;82.00;;;;;;5035372;28;19928;-78
2023/07/25 01:33:10;;;;;;;;;;;15.10;80.60;;;;;;5035403;28;20015;-78
2023/07/25 01:35:35;;;;;;;;;;;15.10;80.60;;;;;;5033893;28;19932;-77
2023/07/25 01:38:01;;;;;;;;;;;15.10;81.00;;;;;;5034163;28;20480;-77
2023/07/25 01:40:27;;;;;;;;;;;15.00;79.60;;;;;;5034464;28;20298;-77
2023/07/25 01:42:52;;;;;;;;;;;15.00;81.20;;;;;;5039109;28;20352;-77
2023/07/25 01:45:18;;;;;;;;;;;15.00;79.80;;;;;;5022568;28;19932;-78
2023/07/25 01:47:43;;;;;;;;;;;15.00;80.10;;;;;;5033610;28;19929;-77
2023/07/25 01:50:09;;;;;;;;;;;14.90;80.30;;;;;;5038073;28;20283;-78
2023/07/25 01:52:35;;;;;;;;;;;14.90;80.60;;;;;;5045622;28;19944;-78
2023/07/25 01:55:00;;;;;;;;;;;14.90;81.30;;;;;;5044354;28;19967;-78
2023/07/25 01:57:26;;;;;;;;;;;14.90;80.10;;;;;;5038068;28;19939;-78
2023/07/25 01:59:51;;;;;;;;;;;14.90;79.80;;;;;;5039074;28;20295;-78
2023/07/25 02:02:17;;;;;;;;;;;14.90;80.20;;;;;;5037254;28;19936;-78
2023/07/25 02:04:43;;;;;;;;;;;14.90;80.60;;;;;;5020717;28;19925;-78
2023/07/25 02:07:09;;;;;;;;;;;14.90;80.90;;;;;;5037526;28;19933;-77
2023/07/25 02:09:34;;;;;;;;;;;14.80;81.20;;;;;;5038788;28;19968;-78
2023/07/25 02:12:00;;;;;;;;;;;14.80;81.60;;;;;;5045201;28;19972;-78
2023/07/25 02:14:26;;;;;;;;;;;14.80;81.30;;;;;;5041318;28;19939;-79
2023/07/25 02:16:52;;;;;;;;;;;14.80;79.80;;;;;;5027705;28;19932;-79
2023/07/25 02:19:23;;;;;;;;;;;14.80;80.60;;;;;;5025378;28;19982;-78
2023/07/25 02:21:48;;;;;;;;;;;14.80;81.10;;;;;;5042942;28;19946;-78
2023/07/25 02:24:14;;;;;;;;;;;13.40;81.00;;;;;;5009890;28;20545;-78
2023/07/25 02:26:40;;;;;;;;;;;14.70;82.10;;;;;;5022887;28;19929;-78
2023/07/25 02:29:05;;;;;;;;;;;14.70;82.00;;;;;;5026597;28;21391;-78
2023/07/25 02:31:31;;;;;;;;;;;14.70;81.80;;;;;;5023625;28;20004;-78
2023/07/25 02:33:57;;;;;;;;;;;14.70;81.90;;;;;;5039864;28;19929;-78
2023/07/25 02:36:22;;;;;;;;;;;14.70;82.10;;;;;;5041578;28;19933;-79
2023/07/25 02:38:48;;;;;;;;;;;14.70;82.40;;;;;;5023545;28;20351;-79
2023/07/25 02:41:13;;;;;;;;;;;14.70;82.40;;;;;;5039418;28;19936;-78
2023/07/25 02:43:39;;;;;;;;;;;14.60;81.70;;;;;;5025143;28;19928;-78
2023/07/25 02:46:05;;;;;;;;;;;14.60;81.20;;;;;;5026168;28;19936;-79
2023/07/25 02:48:30;;;;;;;;;;;14.70;81.50;;;;;;5041956;28;19940;-78
2023/07/25 02:50:56;;;;;;;;;;;14.70;82.10;;;;;;5038813;28;19936;-78
2023/07/25 02:53:21;;;;;;;;;;;14.70;82.70;;;;;;5038987;28;20265;-78
2023/07/25 02:55:47;;;;;;;;;;;14.70;83.00;;;;;;5036434;28;19925;-78
2023/07/25 02:58:13;;;;;;;;;;;14.80;83.80;;;;;;5037198;28;20428;-78
2023/07/25 03:00:39;;;;;;;;;;;14.80;84.10;;;;;;5036992;28;19936;-78
2023/07/25 03:03:04;;;;;;;;;;;14.70;81.20;;;;;;5037817;28;20180;-79
2023/07/25 03:05:30;;;;;;;;;;;14.70;78.80;;;;;;5021621;28;20303;-78
2023/07/25 03:07:56;;;;;;;;;;;14.60;77.10;;;;;;5037391;28;20062;-79
2023/07/25 03:10:22;;;;;;;;;;;14.60;78.30;;;;;;5039774;28;20283;-79
2023/07/25 03:12:47;;;;;;;;;;;14.50;76.40;;;;;;5039323;28;20024;-78
2023/07/25 03:15:13;;;;;;;;;;;14.50;76.50;;;;;;5040372;28;19929;-78
2023/07/25 03:17:39;;;;;;;;;;;14.50;76.40;;;;;;5039533;28;19926;-78
2023/07/25 03:20:05;;;;;;;;;;;14.40;76.20;;;;;;5020685;28;20378;-78
2023/07/25 03:22:31;;;;;;;;;;;14.50;74.20;;;;;;5036652;28;19924;-78
2023/07/25 03:24:56;;;;;;;;;;;14.40;76.00;;;;;;5036002;28;19935;-79
2023/07/25 03:27:22;;;;;;;;;;;14.40;74.60;;;;;;5037886;28;20425;-78
2023/07/25 03:29:48;;;;;;;;;;;14.40;75.20;;;;;;5036587;28;20678;-78
2023/07/25 03:32:13;;;;;;;;;;;14.40;75.50;;;;;;5018188;28;19925;-78
2023/07/25 03:34:39;;;;;;;;;;;14.40;77.00;;;;;;5037185;28;19936;-78
2023/07/25 03:37:05;;;;;;;;;;;14.40;76.60;;;;;;5036302;28;19929;-78
2023/07/25 03:39:30;;;;;;;;;;;14.40;78.00;;;;;;5004291;28;20024;-79
2023/07/25 03:41:56;;;;;;;;;;;14.40;77.60;;;;;;5036827;28;19933;-79
2023/07/25 03:44:21;;;;;;;;;;;14.40;78.10;;;;;;5052752;28;19944;-78
2023/07/25 03:46:47;;;;;;;;;;;14.40;78.50;;;;;;5019265;28;19935;-78
2023/07/25 03:49:13;;;;;;;;;;;14.50;79.20;;;;;;5019304;28;19935;-78
2023/07/25 03:51:38;;;;;;;;;;;14.50;80.50;;;;;;5019215;28;19928;-77
2023/07/25 03:54:04;;;;;;;;;;;14.50;79.70;;;;;;5036469;28;20114;-78
2023/07/25 03:56:30;;;;;;;;;;;14.50;78.20;;;;;;5036851;28;19925;-78
2023/07/25 03:58:56;;;;;;;;;;;14.50;77.90;;;;;;5036592;28;19955;-79
2023/07/25 04:01:21;;;;;;;;;;;14.50;77.80;;;;;;5034416;28;19929;-78
2023/07/25 04:03:47;;;;;;;;;;;14.50;77.60;;;;;;5035250;28;19983;-79
2023/07/25 04:06:12;;;;;;;;;;;14.50;76.10;;;;;;5001854;28;19933;-78
2023/07/25 04:08:38;;;;;;;;;;;14.50;76.80;;;;;;5023043;28;19941;-77
2023/07/25 04:11:04;;;;;;;;;;;14.50;75.80;;;;;;5033842;28;20008;-78
2023/07/25 04:13:29;;;;;;;;;;;14.50;76.40;;;;;;5035632;28;19982;-79
2023/07/25 04:15:55;;;;;;;;;;;14.50;77.30;;;;;;5017760;28;20038;-78
2023/07/25 04:18:20;;;;;;;;;;;14.40;77.70;;;;;;5034272;28;21477;-78
2023/07/25 04:20:46;;;;;;;;;;;14.40;77.80;;;;;;5033476;28;20729;-79
2023/07/25 04:23:12;;;;;;;;;;;14.40;77.30;;;;;;5006555;28;19935;-79
2023/07/25 04:25:37;;;;;;;;;;;14.40;76.50;;;;;;5035532;28;20271;-79
2023/07/25 04:28:03;;;;;;;;;;;14.40;76.30;;;;;;5017272;28;19933;-78
2023/07/25 04:30:29;;;;;;;;;;;14.40;75.80;;;;;;5033701;28;20283;-78
2023/07/25 04:32:54;;;;;;;;;;;14.40;75.10;;;;;;5003242;28;20019;-78
2023/07/25 04:35:20;;;;;;;;;;;14.40;75.20;;;;;;5034999;28;20008;-78
2023/07/25 04:37:45;;;;;;;;;;;14.40;72.70;;;;;;5021430;28;19983;-78
2023/07/25 04:40:11;;;;;;;;;;;14.40;73.60;;;;;;5016404;28;19933;-78
2023/07/25 04:42:37;;;;;;;;;;;14.40;72.50;;;;;;5014679;28;20012;-79
2023/07/25 04:45:03;;;;;;;;;;;14.40;72.70;;;;;;5034281;28;19925;-78
2023/07/25 04:47:28;;;;;;;;;;;14.40;68.40;;;;;;5033705;28;19928;-78
2023/07/25 04:49:54;;;;;;;;;;;14.40;71.30;;;;;;5018025;28;19932;-78
2023/07/25 04:52:20;;;;;;;;;;;14.40;68.60;;;;;;5032383;28;19935;-79
2023/07/25 04:54:45;;;;;;;;;;;14.40;70.70;;;;;;5000753;28;19939;-78
2023/07/25 04:57:11;;;;;;;;;;;14.50;67.70;;;;;;5000523;28;20799;-79
2023/07/25 04:59:36;;;;;;;;;;;14.40;69.40;;;;;;5032004;28;20019;-79
2023/07/25 05:02:02;;;;;;;;;;;14.50;68.80;;;;;;5017402;28;19987;-79
2023/07/25 05:04:28;;;;;;;;;;;14.50;69.80;;;;;;5014755;28;19933;-79
2023/07/25 05:06:54;;;;;;;;;;;14.40;67.60;;;;;;5032573;28;19994;-78
2023/07/25 05:09:20;;;;;;;;;;;14.50;70.90;;;;;;5034629;28;19929;-78
2023/07/25 05:11:47;;;;;;;;;;;14.50;69.60;;;;;;5015007;28;19931;-78
2023/07/25 05:14:13;;;;;;;;;;;14.50;70.00;;;;;;5030957;28;19928;-78
2023/07/25 05:16:38;;;;;;;;;;;14.50;66.10;;;;;;5032903;28;19936;-78
2023/07/25 05:19:04;;;;;;;;;;;14.50;67.60;;;;;;5032377;28;20529;-79
2023/07/25 05:21:30;;;;;;;;;;;14.60;68.20;;;;;;5020444;28;19963;-79
2023/07/25 05:23:55;;;;;;;;;;;14.60;68.00;;;;;;5033207;28;20265;-78
2023/07/25 05:26:21;;;;;;;;;;;14.60;69.70;;;;;;5033189;28;20365;-78
2023/07/25 05:28:46;;;;;;;;;;;14.60;67.40;;;;;;5031635;28;20023;-79
2023/07/25 05:31:12;;;;;;;;;;;14.70;67.60;;;;;;5030956;28;19956;-78
2023/07/25 05:33:37;;;;;;;;;;;14.80;65.90;;;;;;5032696;28;19965;-78
2023/07/25 05:36:03;;;;;;;;;;;14.90;65.20;;;;;;5031668;28;19928;-78
2023/07/25 05:38:29;;;;;;;;;;;14.90;66.90;;;;;;5033092;28;20946;-74
2023/07/25 05:40:58;;;;;;;;;;;15.00;62.20;;;;;;5030220;28;19933;-74
2023/07/25 05:43:23;;;;;;;;;;;15.10;65.50;;;;;;5047619;28;20050;-74
2023/07/25 05:45:49;;;;;;;;;;;15.20;66.10;;;;;;5033339;28;20366;-75
2023/07/25 05:48:15;;;;;;;;;;;15.20;67.30;;;;;;5047168;28;20419;-77
2023/07/25 05:50:40;;;;;;;;;;;15.30;63.70;;;;;;5003180;28;19925;-77
2023/07/25 05:53:06;;;;;;;;;;;15.30;64.80;;;;;;5017220;28;20416;-77
2023/07/25 05:55:31;;;;;;;;;;;15.30;60.50;;;;;;5034026;28;19975;-76
2023/07/25 05:57:57;;;;;;;;;;;15.20;58.90;;;;;;5030844;28;20040;-76
2023/07/25 06:00:22;;;;;;;;;;;15.20;57.90;;;;;;5031920;28;19932;-76
2023/07/25 06:02:49;;;;;;;;;;;15.20;58.50;;;;;;5031169;28;20444;-77
2023/07/25 06:05:14;;;;;;;;;;;15.10;59.30;;;;;;5032217;28;19932;-78
2023/07/25 06:07:40;;;;;;;;;;;15.10;62.30;;;;;;5031820;28;19933;-78
2023/07/25 06:10:06;;;;;;;;;;;15.10;62.40;;;;;;5033666;28;20364;-77
2023/07/25 06:12:32;;;;;;;;;;;15.20;63.90;;;;;;5033922;28;19933;-76
2023/07/25 06:14:58;;;;;;;;;;;15.30;57.80;;;;;;5031949;28;19937;-77
2023/07/25 06:17:23;;;;;;;;;;;15.40;56.60;;;;;;5032891;28;19928;-76
2023/07/25 06:19:49;;;;;;;;;;;15.50;54.30;;;;;;5031192;28;20050;-80
2023/07/25 06:22:14;;;;;;;;;;;15.60;54.90;;;;;;5031340;28;20300;-74
2023/07/25 06:24:40;;;;;;;;;;;15.60;55.30;;;;;;5032795;28;20017;-75
2023/07/25 06:27:06;;;;;;;;;;;15.70;49.90;;;;;;5014671;28;19935;-75
2023/07/25 06:29:32;;;;;;;;;;;15.80;50.10;;;;;;5032132;28;19941;-75
2023/07/25 06:31:58;;;;;;;;;;;15.90;52.20;;;;;;5028818;28;19925;-75
2023/07/25 06:34:23;;;;;;;;;;;16.10;50.70;;;;;;5033214;28;20146;-74
2023/07/25 06:36:49;;;;;;;;;;;16.20;40.90;;;;;;5034414;28;20299;-74
2023/07/25 06:39:15;;;;;;;;;;;16.00;44.70;;;;;;5035874;28;19924;-75
2023/07/25 06:41:40;;;;;;;;;;;16.20;50.00;;;;;;5034770;28;19925;-74
2023/07/25 06:44:06;;;;;;;;;;;16.30;44.00;;;;;;5038477;28;20012;-75
2023/07/25 06:46:32;;;;;;;;;;;16.30;41.90;;;;;;5017719;28;20403;-76
2023/07/25 06:48:57;;;;;;;;;;;16.40;40.80;;;;;;5033792;28;19933;-76
2023/07/25 06:51:23;;;;;;;;;;;16.60;40.90;;;;;;5036145;28;19933;-75
2023/07/25 06:53:49;;;;;;;;;;;16.80;23.40;;;;;;5034372;28;19925;-76
2023/07/25 06:56:14;;;;;;;;;;;16.70;29.30;;;;;;5035530;28;20375;-76
2023/07/25 06:58:40;;;;;;;;;;;16.90;30.00;;;;;;5018127;28;19928;-76
2023/07/25 07:01:06;;;;;;;;;;;17.10;29.30;;;;;;5016310;28;20370;-75
2023/07/25 07:03:32;;;;;;;;;;;17.20;28.00;;;;;;5017285;28;19932;-75
2023/07/25 07:05:58;;;;;;;;;;;17.50;20.50;;;;;;5018269;28;19925;-75
2023/07/25 07:08:23;;;;;;;;;;;17.70;18.80;;;;;;5017206;28;19929;-74
2023/07/25 07:10:55;;;;;;;;;;;17.80;26.00;;;;;;5034667;28;19936;-73
2023/07/25 07:13:21;;;;;;;;;;;17.70;18.70;;;;;;5018296;28;19929;-79
2023/07/25 07:15:47;;;;;;;;;;;17.60;14.90;;;;;;5021689;28;19961;-77
2023/07/25 07:18:13;;;;;;;;;;;17.60;22.50;;;;;;5016505;28;19940;-77
2023/07/25 07:20:39;;;;;;;;;;;17.50;19.40;;;;;;5034088;28;19929;-77
2023/07/25 07:23:05;;;;;;;;;;;17.50;24.40;;;;;;5034184;28;19928;-76
2023/07/25 07:25:30;;;;;;;;;;;17.50;10.20;;;;;;5033472;28;19968;-77
2023/07/25 07:27:56;;;;;;;;;;;17.60;15.40;;;;;;5033488;28;20012;-77
2023/07/25 07:30:22;;;;;;;;;;;17.90;16.00;;;;;;5033963;28;19925;-74
2023/07/25 07:32:47;;;;;;;;;;;18.10;14.10;;;;;;5036427;28;19932;-77
2023/07/25 07:35:13;;;;;;;;;;;18.50;16.00;;;;;;5035510;28;19929;-77
2023/07/25 07:37:38;;;;;;;;;;;18.70;14.80;;;;;;5015495;28;19933;-75
2023/07/25 07:40:05;;;;;;;;;;;18.60;1.00;;;;;;5016508;28;19925;-77
2023/07/25 07:42:30;;;;;;;;;;;17.30;1.00;;;;;;5034975;28;19932;-80
2023/07/25 07:44:56;;;;;;;;;;;18.20;9.00;;;;;;5015641;28;20716;-78
2023/07/25 07:47:21;;;;;;;;;;;18.00;2.80;;;;;;5018423;28;19925;-79
2023/07/25 07:49:48;;;;;;;;;;;18.00;25.10;;;;;;5019263;28;19933;-80
2023/07/25 07:52:13;;;;;;;;;;;18.00;11.70;;;;;;5037433;28;19931;-80
2023/07/25 07:54:39;;;;;;;;;;;18.10;15.10;;;;;;5033489;28;19929;-76
2023/07/25 07:57:05;;;;;;;;;;;18.10;5.90;;;;;;5017484;28;20111;-80
2023/07/25 07:59:30;;;;;;;;;;;18.10;3.20;;;;;;5034950;28;19932;-79
2023/07/25 08:01:56;;;;;;;;;;;18.10;1.00;;;;;;5041708;28;19935;-79
2023/07/25 08:04:21;;;;;;;;;;;18.10;1.00;;;;;;5015302;28;19940;-80
2023/07/25 08:06:49;;;;;;;;;;;18.20;3.70;;;;;;5016370;28;19963;-79
2023/07/25 08:09:14;;;;;;;;;;;18.50;9.40;;;;;;5034787;28;19929;-80
2023/07/25 08:11:40;;;;;;;;;;;18.70;1.00;;;;;;5032783;28;19929;-80
2023/07/25 08:14:05;;;;;;;;;;;19.00;1.00;;;;;;5031602;28;19960;-78
2023/07/25 08:16:31;;;;;;;;;;;19.30;1.00;;;;;;5016816;28;19929;-79
2023/07/25 08:18:57;;;;;;;;;;;19.50;1.00;;;;;;5032504;28;19972;-78
2023/07/25 08:21:22;;;;;;;;;;;19.50;1.00;;;;;;5032960;28;20556;-78
2023/07/25 08:23:48;;;;;;;;;;;19.50;1.00;;;;;;5033357;28;20320;-79
2023/07/25 08:26:14;;;;;;;;;;;19.50;1.00;;;;;;5035293;28;19932;-79
2023/07/25 08:28:40;;;;;;;;;;;19.70;1.00;;;;;;5032512;28;19940;-79
2023/07/25 08:31:06;;;;;;;;;;;19.90;1.00;;;;;;5017008;28;20425;-80
2023/07/25 08:33:33;;;;;;;;;;;20.00;1.00;;;;;;5032250;28;19926;-80
2023/07/25 08:35:59;;;;;;;;;;;20.20;1.00;;;;;;5032345;28;19940;-80
2023/07/25 08:38:24;;;;;;;;;;;20.50;1.00;;;;;;5032976;28;21761;-79
2023/07/25 08:40:55;;;;;;;;;;;20.70;1.00;;;;;;5019114;28;19936;-79
2023/07/25 08:43:21;;;;;;;;;;;20.80;1.00;;;;;;5034543;28;19978;-78
2023/07/25 08:45:47;;;;;;;;;;;21.00;1.00;;;;;;5019142;28;19990;-79
2023/07/25 08:48:14;;;;;;;;;;;21.00;1.00;;;;;;5032246;28;19940;-79
2023/07/25 08:50:41;;;;;;;;;;;21.10;1.00;;;;;;5050561;28;19929;-79
2023/07/25 08:53:10;;;;;;;;;;;21.00;1.00;;;;;;5016937;28;19971;-79
2023/07/25 08:55:35;;;;;;;;;;;21.20;1.00;;;;;;5034760;28;19928;-78
2023/07/25 08:58:01;;;;;;;;;;;21.50;1.00;;;;;;5032070;28;19935;-78
2023/07/25 09:00:27;;;;;;;;;;;21.60;1.00;;;;;;5033418;28;19955;-78
2023/07/25 09:02:53;;;;;;;;;;;21.70;1.00;;;;;;5019014;28;19931;-84
2023/07/25 09:05:19;;;;;;;;;;;21.30;1.00;;;;;;5015173;28;20380;-78
2023/07/25 09:07:45;;;;;;;;;;;20.90;1.00;;;;;;5000895;28;19929;-78
2023/07/25 09:10:11;;;;;;;;;;;21.00;1.00;;;;;;5035074;28;19925;-79
2023/07/25 09:12:36;;;;;;;;;;;20.70;1.00;;;;;;5022903;28;19929;-79
2023/07/25 09:15:02;;;;;;;;;;;20.80;1.00;;;;;;5035301;28;19931;-79
2023/07/25 09:17:29;;;;;;;;;;;20.90;1.00;;;;;;5033625;28;20288;-79
2023/07/25 09:19:55;;;;;;;;;;;21.10;1.00;;;;;;5018235;28;19929;-75
2023/07/25 09:22:31;;;;;;;;;;;21.20;1.00;;;;;;5031976;28;19931;-77
2023/07/25 09:24:57;;;;;;;;;;;21.30;1.00;;;;;;5048237;28;19936;-77
2023/07/25 09:27:24;;;;;;;;;;;21.40;1.00;;;;;;5037790;28;20432;-77
2023/07/25 09:29:50;;;;;;;;;;;21.60;1.00;;;;;;5036570;28;19929;-76
2023/07/25 09:32:24;;;;;;;;;;;21.60;1.00;;;;;;5033464;28;19936;-77
2023/07/25 09:35:05;;;;;;;;;;;21.90;99.90;;;;;;5034867;28;20418;-75
2023/07/25 09:37:31;;;;;;;;;;;22.20;1.00;;;;;;5030738;28;20494;-81
2023/07/25 09:39:57;;;;;;;;;;;22.10;52.70;;;;;;5031922;28;19932;-81
2023/07/25 09:42:23;;;;;;;;;;;21.90;99.90;;;;;;5034195;28;20629;-78
2023/07/25 09:44:51;;;;;;;;;;;21.80;99.90;;;;;;5031254;28;19943;-80
2023/07/25 09:47:20;;;;;;;;;;;21.80;99.90;;;;;;5031701;28;19931;-79
2023/07/25 09:49:50;;;;;;;;;;;22.10;99.90;;;;;;5031749;28;19925;-79
2023/07/25 09:52:16;;;;;;;;;;;22.30;99.90;;;;;;5034016;28;19935;-80
2023/07/25 09:54:41;;;;;;;;;;;22.60;99.90;;;;;;5031774;28;19929;-78
2023/07/25 09:57:07;;;;;;;;;;;22.90;99.90;;;;;;5024384;28;19933;-81
2023/07/25 09:59:36;;;;;;;;;;;23.00;14.50;;;;;;5004180;28;20011;-86
2023/07/25 10:02:03;;;;;;;;;;;22.70;48.80;;;;;;5054530;28;21082;-86
2023/07/25 10:04:29;;;;;;;;;;;22.70;99.90;;;;;;5037130;28;19929;-87
2023/07/25 10:06:57;;;;;;;;;;;22.70;99.90;;;;;;5019698;28;19952;-84
2023/07/25 10:09:23;;;;;;;;;;;22.50;99.90;;;;;;5034639;28;19925;-86
2023/07/25 10:11:50;;;;;;;;;;;22.30;99.90;;;;;;5041403;28;20028;-84
2023/07/25 10:14:16;;;;;;;;;;;22.00;93.90;;;;;;5036789;28;19941;-85
2023/07/25 10:16:42;;;;;;;;;;;21.70;99.90;;;;;;5038148;28;19933;-86
2023/07/25 10:19:07;;;;;;;;;;;21.60;99.90;;;;;;5036759;28;19924;-85
2023/07/25 10:21:46;;;;;;;;;;;21.60;99.90;;;;;;5038019;28;20394;-85
2023/07/25 10:24:12;;;;;;;;;;;21.60;99.90;;;;;;5019885;28;19929;-81
2023/07/25 10:27:11;;;;;;;;;;;21.60;99.90;;;;;;5038140;28;19929;-81
2023/07/25 10:29:43;;;;;;;;;;;21.70;1.00;;;;;;5000136;28;20003;-82
2023/07/25 10:32:13;;;;;;;;;;;21.50;1.00;;;;;;5037018;28;20026;-82
2023/07/25 10:34:44;;;;;;;;;;;21.70;1.00;;;;;;5035924;28;19939;-82
2023/07/25 10:37:19;;;;;;;;;;;21.60;1.00;;;;;;5034039;28;20320;-83
2023/07/25 10:39:44;;;;;;;;;;;21.40;1.00;;;;;;5039940;28;19925;-83
2023/07/25 10:42:16;;;;;;;;;;;21.20;1.00;;;;;;5005954;28;19932;-80
2023/07/25 10:44:42;;;;;;;;;;;20.90;1.00;;;;;;5033966;28;20070;-79
2023/07/25 10:47:26;;;;;;;;;;;20.70;1.00;;;;;;5038534;28;19937;-79
2023/07/25 10:49:55;;;;;;;;;;;20.40;1.00;;;;;;5036320;28;19928;-79
2023/07/25 10:52:40;;;;;;;;;;;20.40;1.00;;;;;;5044028;28;19928;-79
2023/07/25 10:55:05;;;;;;;;;;;20.30;1.00;;;;;;5039496;28;19925;-81
2023/07/25 10:57:31;;;;;;;;;;;20.30;1.00;;;;;;5022176;28;19929;-79
2023/07/25 10:59:58;;;;;;;;;;;20.10;1.00;;;;;;5038014;28;19932;-81
2023/07/25 11:02:28;;;;;;;;;;;20.00;1.00;;;;;;5040124;28;19971;-80
2023/07/25 11:05:13;;;;;;;;;;;19.80;1.00;;;;;;5040380;28;19932;-79
2023/07/25 11:07:39;;;;;;;;;;;19.50;1.00;;;;;;5024706;28;19929;-80
2023/07/25 11:10:06;;;;;;;;;;;19.30;1.00;;;;;;5040736;28;19936;-80
2023/07/25 11:12:31;;;;;;;;;;;19.10;1.00;;;;;;5042640;28;19936;-80
2023/07/25 11:14:57;;;;;;;;;;;18.70;1.10;;;;;;5041370;28;19925;-80
2023/07/25 11:17:29;;;;;;;;;;;18.50;6.90;;;;;;5025514;28;19929;-79
2023/07/25 11:20:11;;;;;;;;;;;18.30;18.00;;;;;;5036765;28;20459;-79
2023/07/25 11:22:36;;;;;;;;;;;18.10;17.80;;;;;;5029189;28;19925;-81
2023/07/25 11:25:05;;;;;;;;;;;18.10;22.10;;;;;;5023990;28;19933;-80
2023/07/25 11:27:31;;;;;;;;;;;18.10;22.10;;;;;;5040460;28;19996;-79
2023/07/25 11:30:16;;;;;;;;;;;18.00;17.10;;;;;;5040370;28;20396;-79
2023/07/25 11:32:48;;;;;;;;;;;18.10;16.20;;;;;;5040342;28;19929;-80
2023/07/25 11:35:15;;;;;;;;;;;18.10;12.00;;;;;;5041316;28;19925;-79
2023/07/25 11:37:42;;;;;;;;;;;18.10;12.20;;;;;;5022084;28;20350;-80
2023/07/25 11:40:19;;;;;;;;;;;18.40;12.90;;;;;;5037288;28;20430;-79
2023/07/25 11:42:46;;;;;;;;;;;18.50;1.00;;;;;;5041408;28;20547;-79
2023/07/25 11:45:13;;;;;;;;;;;18.70;8.40;;;;;;5036178;28;20406;-80
2023/07/25 11:47:39;;;;;;;;;;;18.80;1.10;;;;;;5040927;28;19928;-76
2023/07/25 11:50:06;;;;;;;;;;;18.90;1.00;;;;;;5041534;28;19952;-76
2023/07/25 11:52:32;;;;;;;;;;;18.90;1.00;;;;;;5046231;28;20023;-75
2023/07/25 11:54:59;;;;;;;;;;;18.90;1.00;;;;;;5040870;28;21335;-76
2023/07/25 11:57:25;;;;;;;;;;;19.00;1.00;;;;;;5041912;28;20670;-76
2023/07/25 11:59:54;;;;;;;;;;;19.10;1.00;;;;;;5038871;28;19933;-76
2023/07/25 12:02:20;;;;;;;;;;;19.20;1.00;;;;;;5036890;28;19928;-79
2023/07/25 12:04:46;;;;;;;;;;;19.10;1.00;;;;;;5037480;28;19944;-78
2023/07/25 12:07:14;;;;;;;;;;;18.90;1.00;;;;;;5054885;28;19925;-78
2023/07/25 12:09:48;;;;;;;;;;;19.00;1.00;;;;;;5037833;28;20013;-78
2023/07/25 12:12:13;;;;;;;;;;;19.10;1.00;;;;;;5051993;28;19929;-78
2023/07/25 12:14:41;;;;;;;;;;;19.30;1.00;;;;;;5035806;28;19986;-83
2023/07/25 12:17:06;;;;;;;;;;;19.60;1.00;;;;;;5034850;28;19925;-77
2023/07/25 12:19:32;;;;;;;;;;;19.80;1.00;;;;;;5034469;28;20442;-83
2023/07/25 12:22:04;;;;;;;;;;;19.90;1.00;;;;;;5056381;28;20421;-82
2023/07/25 12:24:38;;;;;;;;;;;19.90;1.00;;;;;;5039384;28;19928;-83
2023/07/25 12:27:14;;;;;;;;;;;19.90;1.00;;;;;;5023158;28;19951;-83
2023/07/25 12:29:39;;;;;;;;;;;19.80;1.00;;;;;;5040090;28;19967;-84
2023/07/25 12:32:05;;;;;;;;;;;19.70;1.00;;;;;;5040709;28;20562;-83
2023/07/25 12:34:31;;;;;;;;;;;20.10;1.00;;;;;;5027476;28;19931;-82
2023/07/25 12:37:00;;;;;;;;;;;20.60;1.00;;;;;;5039245;28;20330;-82
2023/07/25 12:39:26;;;;;;;;;;;21.00;1.00;;;;;;5046465;28;19928;-82
2023/07/25 12:41:52;;;;;;;;;;;21.00;1.00;;;;;;5056514;28;19932;-83
2023/07/25 12:44:17;;;;;;;;;;;20.70;1.00;;;;;;5038298;28;20309;-84
2023/07/25 12:46:43;;;;;;;;;;;20.90;1.00;;;;;;5039179;28;19932;-83
2023/07/25 12:49:09;;;;;;;;;;;21.10;1.00;;;;;;5038302;28;20427;-82
2023/07/25 12:51:35;;;;;;;;;;;21.60;1.00;;;;;;5054590;28;20430;-83
2023/07/25 12:54:01;;;;;;;;;;;22.00;1.00;;;;;;5037944;28;20023;-83
2023/07/25 12:56:27;;;;;;;;;;;22.40;99.90;;;;;;5038500;28;19933;-83
2023/07/25 12:58:52;;;;;;;;;;;22.80;99.90;;;;;;5021040;28;20303;-84
2023/07/25 13:01:18;;;;;;;;;;;22.90;96.20;;;;;;5038012;28;19929;-83
2023/07/25 13:03:43;;;;;;;;;;;22.80;99.90;;;;;;5020747;28;20000;-83
2023/07/25 13:06:09;;;;;;;;;;;22.50;46.10;;;;;;5038246;28;19933;-82
2023/07/25 13:08:35;;;;;;;;;;;22.20;99.90;;;;;;5021001;28;19925;-84
2023/07/25 13:11:01;;;;;;;;;;;22.00;1.00;;;;;;5038044;28;19964;-83
2023/07/25 13:13:27;;;;;;;;;;;21.70;1.00;;;;;;5038028;28;19929;-83
2023/07/25 13:15:52;;;;;;;;;;;21.40;1.00;;;;;;5022600;28;19935;-83
2023/07/25 13:18:18;;;;;;;;;;;21.00;1.00;;;;;;5005132;28;20297;-83
2023/07/25 13:20:44;;;;;;;;;;;20.70;1.00;;;;;;5036578;28;20066;-83
2023/07/25 13:23:12;;;;;;;;;;;20.20;1.00;;;;;;5033069;28;19929;-83
2023/07/25 13:25:38;;;;;;;;;;;19.80;1.00;;;;;;5035012;28;19935;-84
2023/07/25 13:28:04;;;;;;;;;;;19.40;5.00;;;;;;5033555;28;20398;-83
2023/07/25 13:30:29;;;;;;;;;;;19.20;22.00;;;;;;5034166;28;19925;-83
2023/07/25 13:32:55;;;;;;;;;;;18.90;17.20;;;;;;5019778;28;19929;-81
2023/07/25 13:35:21;;;;;;;;;;;18.60;30.60;;;;;;5036816;28;20368;-83
2023/07/25 13:37:47;;;;;;;;;;;18.50;30.40;;;;;;5034402;28;19925;-82
2023/07/25 13:40:13;;;;;;;;;;;18.40;32.20;;;;;;5020184;28;20441;-82
2023/07/25 13:42:39;;;;;;;;;;;18.50;37.20;;;;;;5038043;28;20000;-82
2023/07/25 13:45:05;;;;;;;;;;;18.60;25.80;;;;;;5035780;28;19929;-82
2023/07/25 13:47:30;;;;;;;;;;;18.70;34.60;;;;;;5004604;28;19933;-82
2023/07/25 13:49:58;;;;;;;;;;;18.80;31.20;;;;;;5035956;28;19933;-81
2023/07/25 13:52:24;;;;;;;;;;;18.80;25.40;;;;;;5035559;28;19968;-82
2023/07/25 13:54:50;;;;;;;;;;;18.70;19.30;;;;;;5035306;28;19929;-81
2023/07/25 13:57:15;;;;;;;;;;;18.50;10.00;;;;;;5006039;28;19940;-82
2023/07/25 13:59:41;;;;;;;;;;;18.60;15.80;;;;;;5037653;28;19975;-81
2023/07/25 14:02:07;;;;;;;;;;;18.70;13.70;;;;;;5020004;28;20295;-80
2023/07/25 14:04:32;;;;;;;;;;;18.70;4.60;;;;;;5037674;28;19936;-81
2023/07/25 14:06:58;;;;;;;;;;;19.00;9.70;;;;;;5037676;28;19948;-80
2023/07/25 14:09:24;;;;;;;;;;;19.50;4.60;;;;;;5035474;28;19929;-79
2023/07/25 14:11:49;;;;;;;;;;;19.80;1.00;;;;;;5034894;28;19925;-80
2023/07/25 14:14:15;;;;;;;;;;;20.00;1.00;;;;;;5034305;28;19994;-76
2023/07/25 14:16:41;;;;;;;;;;;20.20;1.00;;;;;;5035269;28;20008;-82